sensor_id;sensor_type;location;lat;lon;timestamp;P1;durP1;ratioP1;P2;durP2;ratioP2
3000;SDS011;1510;51.072;6.678;2023-12-28T00:01:39;16.63;;;3.13;;
3000;SDS011;1510;51.072;6.678;2023-12-28T00:04:07;16.63;;;3.43;;
3000;SDS011;1510;51.072;6.678;2023-12-28T00:06:34;15.23;;;2.67;;
3000;SDS011;1510;51.072;6.678;2023-12-28T00:09:01;18.43;;;3.57;;
3000;SDS011;1510;51.072;6.678;2023-12-28T00:11:29;17.40;;;3.40;;
3000;SDS011;1510;51.072;6.678;2023-12-28T00:13:55;24.20;;;5.20;;
3000;SDS011;1510;51.072;6.678;2023-12-28T00:16:22;18.37;;;5.00;;
3000;SDS011;1510;51.072;6.678;2023-12-28T00:18:49;19.17;;;5.03;;
3000;SDS011;1510;51.072;6.678;2023-12-28T00:21:18;18.67;;;5.30;;
3000;SDS011;1510;51.072;6.678;2023-12-28T00:23:45;19.53;;;6.13;;
3000;SDS011;1510;51.072;6.678;2023-12-28T00:26:11;20.03;;;7.00;;
3000;SDS011;1510;51.072;6.678;2023-12-28T00:28:38;19.20;;;8.60;;
3000;SDS011;1510;51.072;6.678;2023-12-28T00:31:06;22.90;;;12.10;;
3000;SDS011;1510;51.072;6.678;2023-12-28T00:33:35;22.47;;;12.30;;
3000;SDS011;1510;51.072;6.678;2023-12-28T00:36:02;25.50;;;14.47;;
3000;SDS011;1510;51.072;6.678;2023-12-28T00:38:30;23.13;;;17.00;;
3000;SDS011;1510;51.072;6.678;2023-12-28T00:40:57;23.70;;;19.97;;
3000;SDS011;1510;51.072;6.678;2023-12-28T00:43:24;29.77;;;27.07;;
3000;SDS011;1510;51.072;6.678;2023-12-28T00:45:51;35.97;;;32.80;;
3000;SDS011;1510;51.072;6.678;2023-12-28T00:48:18;38.90;;;35.97;;
3000;SDS011;1510;51.072;6.678;2023-12-28T00:50:46;48.57;;;45.07;;
3000;SDS011;1510;51.072;6.678;2023-12-28T00:53:12;48.80;;;45.50;;
3000;SDS011;1510;51.072;6.678;2023-12-28T00:55:41;64.50;;;60.67;;
3000;SDS011;1510;51.072;6.678;2023-12-28T00:58:08;47.17;;;43.67;;
3000;SDS011;1510;51.072;6.678;2023-12-28T01:00:35;46.70;;;43.30;;
3000;SDS011;1510;51.072;6.678;2023-12-28T01:03:02;44.90;;;41.73;;
3000;SDS011;1510;51.072;6.678;2023-12-28T01:05:29;46.40;;;42.97;;
3000;SDS011;1510;51.072;6.678;2023-12-28T01:07:56;42.00;;;39.00;;
3000;SDS011;1510;51.072;6.678;2023-12-28T01:10:23;41.60;;;38.40;;
3000;SDS011;1510;51.072;6.678;2023-12-28T01:12:52;40.50;;;37.60;;
3000;SDS011;1510;51.072;6.678;2023-12-28T01:15:19;49.20;;;45.97;;
3000;SDS011;1510;51.072;6.678;2023-12-28T01:17:46;43.37;;;39.87;;
3000;SDS011;1510;51.072;6.678;2023-12-28T01:20:13;54.30;;;50.40;;
3000;SDS011;1510;51.072;6.678;2023-12-28T01:22:40;57.73;;;54.13;;
3000;SDS011;1510;51.072;6.678;2023-12-28T01:25:07;45.30;;;41.87;;
3000;SDS011;1510;51.072;6.678;2023-12-28T01:27:34;40.20;;;37.00;;
3000;SDS011;1510;51.072;6.678;2023-12-28T01:30:02;49.70;;;46.50;;
3000;SDS011;1510;51.072;6.678;2023-12-28T01:32:29;50.43;;;47.20;;
3000;SDS011;1510;51.072;6.678;2023-12-28T01:34:56;47.07;;;43.97;;
3000;SDS011;1510;51.072;6.678;2023-12-28T01:37:23;48.07;;;44.67;;
3000;SDS011;1510;51.072;6.678;2023-12-28T01:39:50;52.37;;;49.10;;
3000;SDS011;1510;51.072;6.678;2023-12-28T01:42:17;49.20;;;46.00;;
3000;SDS011;1510;51.072;6.678;2023-12-28T01:44:43;47.53;;;44.30;;
3000;SDS011;1510;51.072;6.678;2023-12-28T01:47:11;54.23;;;50.70;;
3000;SDS011;1510;51.072;6.678;2023-12-28T01:49:38;63.17;;;59.47;;
3000;SDS011;1510;51.072;6.678;2023-12-28T01:52:06;72.33;;;68.43;;
3000;SDS011;1510;51.072;6.678;2023-12-28T01:54:33;65.73;;;61.87;;
3000;SDS011;1510;51.072;6.678;2023-12-28T01:57:00;54.30;;;50.90;;
3000;SDS011;1510;51.072;6.678;2023-12-28T01:59:29;58.93;;;55.43;;
3000;SDS011;1510;51.072;6.678;2023-12-28T02:01:57;62.37;;;58.57;;
3000;SDS011;1510;51.072;6.678;2023-12-28T02:04:25;65.30;;;61.20;;
3000;SDS011;1510;51.072;6.678;2023-12-28T02:06:54;66.07;;;62.27;;
3000;SDS011;1510;51.072;6.678;2023-12-28T02:09:23;65.50;;;61.40;;
3000;SDS011;1510;51.072;6.678;2023-12-28T02:11:50;56.83;;;52.53;;
3000;SDS011;1510;51.072;6.678;2023-12-28T02:14:17;55.17;;;51.37;;
3000;SDS011;1510;51.072;6.678;2023-12-28T02:16:46;52.47;;;48.97;;
3000;SDS011;1510;51.072;6.678;2023-12-28T02:19:17;50.17;;;47.03;;
3000;SDS011;1510;51.072;6.678;2023-12-28T02:21:53;48.03;;;44.97;;
3000;SDS011;1510;51.072;6.678;2023-12-28T02:24:21;47.87;;;44.80;;
3000;SDS011;1510;51.072;6.678;2023-12-28T02:26:49;50.20;;;47.10;;
3000;SDS011;1510;51.072;6.678;2023-12-28T02:29:16;57.27;;;53.80;;
3000;SDS011;1510;51.072;6.678;2023-12-28T02:31:45;72.07;;;68.07;;
3000;SDS011;1510;51.072;6.678;2023-12-28T02:34:19;77.27;;;73.10;;
3000;SDS011;1510;51.072;6.678;2023-12-28T02:36:55;74.90;;;70.97;;
3000;SDS011;1510;51.072;6.678;2023-12-28T02:39:23;76.93;;;72.93;;
3000;SDS011;1510;51.072;6.678;2023-12-28T02:41:53;76.47;;;72.37;;
3000;SDS011;1510;51.072;6.678;2023-12-28T02:44:21;77.47;;;73.37;;
3000;SDS011;1510;51.072;6.678;2023-12-28T02:46:48;87.30;;;82.90;;
3000;SDS011;1510;51.072;6.678;2023-12-28T02:49:15;96.80;;;92.07;;
3000;SDS011;1510;51.072;6.678;2023-12-28T02:51:42;108.97;;;103.90;;
3000;SDS011;1510;51.072;6.678;2023-12-28T02:54:08;124.30;;;118.40;;
3000;SDS011;1510;51.072;6.678;2023-12-28T02:56:35;121.27;;;115.77;;
3000;SDS011;1510;51.072;6.678;2023-12-28T02:59:03;129.10;;;123.37;;
3000;SDS011;1510;51.072;6.678;2023-12-28T03:01:30;134.03;;;128.07;;
3000;SDS011;1510;51.072;6.678;2023-12-28T03:03:57;127.70;;;122.10;;
3000;SDS011;1510;51.072;6.678;2023-12-28T03:06:24;127.53;;;121.90;;
3000;SDS011;1510;51.072;6.678;2023-12-28T03:08:49;128.40;;;122.50;;
3000;SDS011;1510;51.072;6.678;2023-12-28T03:11:16;118.60;;;113.13;;
3000;SDS011;1510;51.072;6.678;2023-12-28T03:13:45;133.93;;;128.20;;
3000;SDS011;1510;51.072;6.678;2023-12-28T03:16:14;126.30;;;120.63;;
3000;SDS011;1510;51.072;6.678;2023-12-28T03:18:41;137.63;;;131.30;;
3000;SDS011;1510;51.072;6.678;2023-12-28T03:21:07;128.30;;;121.50;;
3000;SDS011;1510;51.072;6.678;2023-12-28T03:23:34;131.77;;;123.80;;
3000;SDS011;1510;51.072;6.678;2023-12-28T03:26:01;132.43;;;124.53;;
3000;SDS011;1510;51.072;6.678;2023-12-28T03:28:28;131.50;;;123.60;;
3000;SDS011;1510;51.072;6.678;2023-12-28T03:30:55;136.93;;;128.83;;
3000;SDS011;1510;51.072;6.678;2023-12-28T03:33:25;129.80;;;122.07;;
3000;SDS011;1510;51.072;6.678;2023-12-28T03:35:52;134.57;;;126.97;;
3000;SDS011;1510;51.072;6.678;2023-12-28T03:38:19;134.20;;;126.20;;
3000;SDS011;1510;51.072;6.678;2023-12-28T03:40:46;123.47;;;115.80;;
3000;SDS011;1510;51.072;6.678;2023-12-28T03:43:15;114.83;;;107.30;;
3000;SDS011;1510;51.072;6.678;2023-12-28T03:45:41;107.80;;;100.80;;
3000;SDS011;1510;51.072;6.678;2023-12-28T03:48:08;94.07;;;87.67;;
3000;SDS011;1510;51.072;6.678;2023-12-28T03:50:36;84.63;;;78.43;;
3000;SDS011;1510;51.072;6.678;2023-12-28T03:53:05;78.17;;;71.73;;
3000;SDS011;1510;51.072;6.678;2023-12-28T03:55:31;68.83;;;63.03;;
3000;SDS011;1510;51.072;6.678;2023-12-28T03:57:58;73.07;;;67.30;;
3000;SDS011;1510;51.072;6.678;2023-12-28T04:00:25;72.17;;;66.43;;
3000;SDS011;1510;51.072;6.678;2023-12-28T04:02:52;69.87;;;64.17;;
3000;SDS011;1510;51.072;6.678;2023-12-28T04:05:19;69.20;;;63.50;;
3000;SDS011;1510;51.072;6.678;2023-12-28T04:07:47;63.17;;;57.67;;
3000;SDS011;1510;51.072;6.678;2023-12-28T04:10:15;60.73;;;55.33;;
3000;SDS011;1510;51.072;6.678;2023-12-28T04:12:54;61.67;;;56.10;;
3000;SDS011;1510;51.072;6.678;2023-12-28T04:15:22;57.13;;;51.63;;
3000;SDS011;1510;51.072;6.678;2023-12-28T04:17:49;56.73;;;51.50;;
3000;SDS011;1510;51.072;6.678;2023-12-28T04:20:16;57.40;;;52.10;;
3000;SDS011;1510;51.072;6.678;2023-12-28T04:22:44;56.17;;;50.90;;
3000;SDS011;1510;51.072;6.678;2023-12-28T04:25:12;50.83;;;45.83;;
3000;SDS011;1510;51.072;6.678;2023-12-28T04:27:41;49.27;;;43.87;;
3000;SDS011;1510;51.072;6.678;2023-12-28T04:30:11;47.87;;;42.77;;
3000;SDS011;1510;51.072;6.678;2023-12-28T04:32:38;124.73;;;85.20;;
3000;SDS011;1510;51.072;6.678;2023-12-28T04:35:05;98.83;;;91.83;;
3000;SDS011;1510;51.072;6.678;2023-12-28T04:37:33;28.67;;;27.37;;
3000;SDS011;1510;51.072;6.678;2023-12-28T04:40:00;27.97;;;26.57;;
3000;SDS011;1510;51.072;6.678;2023-12-28T04:42:29;23.70;;;22.60;;
3000;SDS011;1510;51.072;6.678;2023-12-28T04:44:56;24.40;;;23.20;;
3000;SDS011;1510;51.072;6.678;2023-12-28T04:47:23;23.73;;;22.23;;
3000;SDS011;1510;51.072;6.678;2023-12-28T04:49:49;21.87;;;20.57;;
3000;SDS011;1510;51.072;6.678;2023-12-28T04:52:16;24.00;;;22.60;;
3000;SDS011;1510;51.072;6.678;2023-12-28T04:54:43;23.87;;;22.67;;
3000;SDS011;1510;51.072;6.678;2023-12-28T04:57:10;26.10;;;24.60;;
3000;SDS011;1510;51.072;6.678;2023-12-28T04:59:39;23.67;;;22.27;;
3000;SDS011;1510;51.072;6.678;2023-12-28T05:02:06;23.10;;;21.77;;
3000;SDS011;1510;51.072;6.678;2023-12-28T05:04:33;23.83;;;22.47;;
3000;SDS011;1510;51.072;6.678;2023-12-28T05:07:02;26.60;;;25.30;;
3000;SDS011;1510;51.072;6.678;2023-12-28T05:09:29;25.30;;;23.90;;
3000;SDS011;1510;51.072;6.678;2023-12-28T05:11:56;25.60;;;24.20;;
3000;SDS011;1510;51.072;6.678;2023-12-28T05:14:23;23.20;;;21.10;;
3000;SDS011;1510;51.072;6.678;2023-12-28T05:16:51;20.17;;;18.97;;
3000;SDS011;1510;51.072;6.678;2023-12-28T05:19:18;19.80;;;18.20;;
3000;SDS011;1510;51.072;6.678;2023-12-28T05:21:45;56.50;;;18.43;;
3000;SDS011;1510;51.072;6.678;2023-12-28T05:24:12;54.83;;;16.40;;
3000;SDS011;1510;51.072;6.678;2023-12-28T05:26:39;51.67;;;13.87;;
3000;SDS011;1510;51.072;6.678;2023-12-28T05:29:06;50.97;;;13.43;;
3000;SDS011;1510;51.072;6.678;2023-12-28T05:31:33;48.90;;;11.70;;
3000;SDS011;1510;51.072;6.678;2023-12-28T05:34:01;47.10;;;9.80;;
3000;SDS011;1510;51.072;6.678;2023-12-28T05:36:28;45.07;;;7.40;;
3000;SDS011;1510;51.072;6.678;2023-12-28T05:38:54;43.50;;;7.63;;
3000;SDS011;1510;51.072;6.678;2023-12-28T05:41:21;43.00;;;6.20;;
3000;SDS011;1510;51.072;6.678;2023-12-28T05:43:48;41.87;;;5.80;;
3000;SDS011;1510;51.072;6.678;2023-12-28T05:46:15;40.87;;;6.10;;
3000;SDS011;1510;51.072;6.678;2023-12-28T05:48:42;38.57;;;4.60;;
3000;SDS011;1510;51.072;6.678;2023-12-28T05:51:10;38.83;;;4.60;;
3000;SDS011;1510;51.072;6.678;2023-12-28T05:53:37;38.13;;;4.53;;
3000;SDS011;1510;51.072;6.678;2023-12-28T05:56:04;37.17;;;4.17;;
3000;SDS011;1510;51.072;6.678;2023-12-28T05:58:31;37.03;;;4.50;;
3000;SDS011;1510;51.072;6.678;2023-12-28T06:00:58;35.23;;;3.70;;
3000;SDS011;1510;51.072;6.678;2023-12-28T06:03:25;35.67;;;3.30;;
3000;SDS011;1510;51.072;6.678;2023-12-28T06:05:53;35.40;;;2.90;;
3000;SDS011;1510;51.072;6.678;2023-12-28T06:08:21;35.47;;;3.30;;
3000;SDS011;1510;51.072;6.678;2023-12-28T06:10:49;34.37;;;3.30;;
3000;SDS011;1510;51.072;6.678;2023-12-28T06:13:16;34.13;;;3.10;;
3000;SDS011;1510;51.072;6.678;2023-12-28T06:15:43;34.07;;;3.20;;
3000;SDS011;1510;51.072;6.678;2023-12-28T06:18:09;33.63;;;3.10;;
3000;SDS011;1510;51.072;6.678;2023-12-28T06:20:37;33.50;;;3.10;;
3000;SDS011;1510;51.072;6.678;2023-12-28T06:23:04;32.90;;;2.40;;
3000;SDS011;1510;51.072;6.678;2023-12-28T06:25:35;32.63;;;2.60;;
3000;SDS011;1510;51.072;6.678;2023-12-28T06:28:02;32.60;;;2.80;;
3000;SDS011;1510;51.072;6.678;2023-12-28T06:30:29;32.40;;;2.20;;
3000;SDS011;1510;51.072;6.678;2023-12-28T06:32:55;32.40;;;2.60;;
3000;SDS011;1510;51.072;6.678;2023-12-28T06:35:23;32.03;;;2.30;;
3000;SDS011;1510;51.072;6.678;2023-12-28T06:37:50;32.10;;;2.10;;
3000;SDS011;1510;51.072;6.678;2023-12-28T06:40:16;32.10;;;2.30;;
3000;SDS011;1510;51.072;6.678;2023-12-28T06:42:45;31.33;;;1.80;;
3000;SDS011;1510;51.072;6.678;2023-12-28T06:45:12;31.60;;;1.80;;
3000;SDS011;1510;51.072;6.678;2023-12-28T06:47:39;31.60;;;1.60;;
3000;SDS011;1510;51.072;6.678;2023-12-28T06:50:06;31.67;;;1.70;;
3000;SDS011;1510;51.072;6.678;2023-12-28T06:52:33;31.60;;;1.80;;
3000;SDS011;1510;51.072;6.678;2023-12-28T06:55:00;31.50;;;1.80;;
3000;SDS011;1510;51.072;6.678;2023-12-28T06:57:27;31.33;;;1.90;;
3000;SDS011;1510;51.072;6.678;2023-12-28T06:59:55;31.10;;;1.90;;
3000;SDS011;1510;51.072;6.678;2023-12-28T07:02:24;31.00;;;1.80;;
3000;SDS011;1510;51.072;6.678;2023-12-28T07:04:52;30.93;;;1.90;;
3000;SDS011;1510;51.072;6.678;2023-12-28T07:07:19;30.90;;;1.90;;
3000;SDS011;1510;51.072;6.678;2023-12-28T07:09:46;31.00;;;1.90;;
3000;SDS011;1510;51.072;6.678;2023-12-28T07:12:12;31.00;;;2.03;;
3000;SDS011;1510;51.072;6.678;2023-12-28T07:14:39;30.77;;;2.20;;
3000;SDS011;1510;51.072;6.678;2023-12-28T07:17:07;29.80;;;2.00;;
3000;SDS011;1510;51.072;6.678;2023-12-28T07:19:37;30.80;;;2.10;;
3000;SDS011;1510;51.072;6.678;2023-12-28T07:22:03;30.57;;;2.00;;
3000;SDS011;1510;51.072;6.678;2023-12-28T07:24:30;30.40;;;1.90;;
3000;SDS011;1510;51.072;6.678;2023-12-28T07:26:57;30.40;;;1.90;;
3000;SDS011;1510;51.072;6.678;2023-12-28T07:29:26;29.87;;;2.00;;
3000;SDS011;1510;51.072;6.678;2023-12-28T07:31:53;52.37;;;3.40;;
3000;SDS011;1510;51.072;6.678;2023-12-28T07:34:21;17.30;;;1.80;;
3000;SDS011;1510;51.072;6.678;2023-12-28T07:36:48;17.30;;;1.80;;
3000;SDS011;1510;51.072;6.678;2023-12-28T07:39:15;17.17;;;1.70;;
3000;SDS011;1510;51.072;6.678;2023-12-28T07:41:42;16.70;;;1.80;;
3000;SDS011;1510;51.072;6.678;2023-12-28T07:44:09;16.83;;;1.80;;
3000;SDS011;1510;51.072;6.678;2023-12-28T07:46:36;16.77;;;1.60;;
3000;SDS011;1510;51.072;6.678;2023-12-28T07:49:03;16.70;;;1.60;;
3000;SDS011;1510;51.072;6.678;2023-12-28T07:51:33;16.87;;;1.70;;
3000;SDS011;1510;51.072;6.678;2023-12-28T07:54:00;16.70;;;1.70;;
3000;SDS011;1510;51.072;6.678;2023-12-28T07:56:26;16.83;;;1.60;;
3000;SDS011;1510;51.072;6.678;2023-12-28T07:58:53;16.70;;;1.60;;
3000;SDS011;1510;51.072;6.678;2023-12-28T08:01:21;16.60;;;1.60;;
3000;SDS011;1510;51.072;6.678;2023-12-28T08:03:48;16.60;;;1.50;;
3000;SDS011;1510;51.072;6.678;2023-12-28T08:06:15;16.63;;;1.63;;
3000;SDS011;1510;51.072;6.678;2023-12-28T08:08:43;16.53;;;1.60;;
3000;SDS011;1510;51.072;6.678;2023-12-28T08:11:10;16.67;;;1.40;;
3000;SDS011;1510;51.072;6.678;2023-12-28T08:13:37;16.40;;;1.40;;
3000;SDS011;1510;51.072;6.678;2023-12-28T08:16:04;16.47;;;1.50;;
3000;SDS011;1510;51.072;6.678;2023-12-28T08:18:31;16.40;;;1.50;;
3000;SDS011;1510;51.072;6.678;2023-12-28T08:20:58;16.40;;;1.40;;
3000;SDS011;1510;51.072;6.678;2023-12-28T08:23:25;16.63;;;1.60;;
3000;SDS011;1510;51.072;6.678;2023-12-28T08:25:54;9.53;;;3.20;;
3000;SDS011;1510;51.072;6.678;2023-12-28T08:28:21;12.97;;;2.90;;
3000;SDS011;1510;51.072;6.678;2023-12-28T08:30:48;7.80;;;4.53;;
3000;SDS011;1510;51.072;6.678;2023-12-28T08:33:15;7.43;;;3.10;;
3000;SDS011;1510;51.072;6.678;2023-12-28T08:35:42;15.80;;;4.07;;
3000;SDS011;1510;51.072;6.678;2023-12-28T08:38:10;8.53;;;3.80;;
3000;SDS011;1510;51.072;6.678;2023-12-28T08:40:37;9.17;;;2.87;;
3000;SDS011;1510;51.072;6.678;2023-12-28T08:43:05;6.63;;;2.67;;
3000;SDS011;1510;51.072;6.678;2023-12-28T08:45:32;6.33;;;3.13;;
3000;SDS011;1510;51.072;6.678;2023-12-28T08:48:00;10.43;;;6.00;;
3000;SDS011;1510;51.072;6.678;2023-12-28T08:50:27;12.40;;;2.93;;
3000;SDS011;1510;51.072;6.678;2023-12-28T08:52:54;7.50;;;3.27;;
3000;SDS011;1510;51.072;6.678;2023-12-28T08:55:21;9.70;;;3.57;;
3000;SDS011;1510;51.072;6.678;2023-12-28T08:57:48;11.57;;;3.30;;
3000;SDS011;1510;51.072;6.678;2023-12-28T09:00:16;7.30;;;2.73;;
3000;SDS011;1510;51.072;6.678;2023-12-28T09:02:44;9.03;;;2.73;;
3000;SDS011;1510;51.072;6.678;2023-12-28T09:05:11;8.87;;;3.00;;
3000;SDS011;1510;51.072;6.678;2023-12-28T09:07:38;13.90;;;3.47;;
3000;SDS011;1510;51.072;6.678;2023-12-28T09:10:08;11.40;;;3.93;;
3000;SDS011;1510;51.072;6.678;2023-12-28T09:12:36;7.20;;;2.73;;
3000;SDS011;1510;51.072;6.678;2023-12-28T09:15:03;12.53;;;3.20;;
3000;SDS011;1510;51.072;6.678;2023-12-28T09:17:32;14.00;;;3.90;;
3000;SDS011;1510;51.072;6.678;2023-12-28T09:19:59;12.97;;;3.43;;
3000;SDS011;1510;51.072;6.678;2023-12-28T09:22:26;11.00;;;2.73;;
3000;SDS011;1510;51.072;6.678;2023-12-28T09:24:53;19.00;;;3.20;;
3000;SDS011;1510;51.072;6.678;2023-12-28T09:27:20;8.43;;;3.57;;
3000;SDS011;1510;51.072;6.678;2023-12-28T09:29:47;7.60;;;3.03;;
3000;SDS011;1510;51.072;6.678;2023-12-28T09:32:14;9.37;;;2.73;;
3000;SDS011;1510;51.072;6.678;2023-12-28T09:34:43;7.17;;;2.60;;
3000;SDS011;1510;51.072;6.678;2023-12-28T09:37:09;11.57;;;3.73;;
3000;SDS011;1510;51.072;6.678;2023-12-28T09:39:37;11.00;;;3.70;;
3000;SDS011;1510;51.072;6.678;2023-12-28T09:42:05;10.43;;;3.90;;
3000;SDS011;1510;51.072;6.678;2023-12-28T09:44:38;10.43;;;2.97;;
3000;SDS011;1510;51.072;6.678;2023-12-28T09:47:06;9.90;;;3.90;;
3000;SDS011;1510;51.072;6.678;2023-12-28T09:49:33;9.87;;;2.93;;
3000;SDS011;1510;51.072;6.678;2023-12-28T09:52:06;10.13;;;2.67;;
3000;SDS011;1510;51.072;6.678;2023-12-28T09:54:34;11.00;;;2.37;;
3000;SDS011;1510;51.072;6.678;2023-12-28T09:57:01;11.23;;;2.90;;
3000;SDS011;1510;51.072;6.678;2023-12-28T09:59:29;13.60;;;3.90;;
3000;SDS011;1510;51.072;6.678;2023-12-28T10:01:58;16.65;;;3.20;;
3000;SDS011;1510;51.072;6.678;2023-12-28T10:04:27;8.83;;;2.70;;
3000;SDS011;1510;51.072;6.678;2023-12-28T10:06:54;10.43;;;2.70;;
3000;SDS011;1510;51.072;6.678;2023-12-28T10:09:23;8.03;;;2.50;;
3000;SDS011;1510;51.072;6.678;2023-12-28T10:11:52;9.40;;;2.67;;
3000;SDS011;1510;51.072;6.678;2023-12-28T10:14:19;17.90;;;8.47;;
3000;SDS011;1510;51.072;6.678;2023-12-28T10:16:46;13.40;;;2.97;;
3000;SDS011;1510;51.072;6.678;2023-12-28T10:19:13;13.10;;;3.77;;
3000;SDS011;1510;51.072;6.678;2023-12-28T10:21:40;258.50;;;85.40;;
3000;SDS011;1510;51.072;6.678;2023-12-28T10:24:09;6.07;;;1.80;;
3000;SDS011;1510;51.072;6.678;2023-12-28T10:26:38;14.63;;;2.30;;
3000;SDS011;1510;51.072;6.678;2023-12-28T10:29:05;17.83;;;3.80;;
3000;SDS011;1510;51.072;6.678;2023-12-28T10:31:33;16.57;;;2.57;;
3000;SDS011;1510;51.072;6.678;2023-12-28T10:34:03;7.90;;;2.00;;
3000;SDS011;1510;51.072;6.678;2023-12-28T10:36:30;7.57;;;2.10;;
3000;SDS011;1510;51.072;6.678;2023-12-28T10:39:04;16.15;;;2.95;;
3000;SDS011;1510;51.072;6.678;2023-12-28T10:41:33;16.67;;;2.60;;
3000;SDS011;1510;51.072;6.678;2023-12-28T10:44:04;12.57;;;3.10;;
3000;SDS011;1510;51.072;6.678;2023-12-28T10:46:33;14.90;;;2.20;;
3000;SDS011;1510;51.072;6.678;2023-12-28T10:49:10;10.10;;;2.53;;
3000;SDS011;1510;51.072;6.678;2023-12-28T10:51:40;12.33;;;3.00;;
3000;SDS011;1510;51.072;6.678;2023-12-28T10:54:11;12.33;;;3.13;;
3000;SDS011;1510;51.072;6.678;2023-12-28T10:56:49;10.47;;;2.10;;
3000;SDS011;1510;51.072;6.678;2023-12-28T10:59:24;13.43;;;2.10;;
3000;SDS011;1510;51.072;6.678;2023-12-28T11:01:59;13.90;;;2.07;;
3000;SDS011;1510;51.072;6.678;2023-12-28T11:04:30;6.87;;;1.87;;
3000;SDS011;1510;51.072;6.678;2023-12-28T11:07:09;8.43;;;2.30;;
3000;SDS011;1510;51.072;6.678;2023-12-28T11:09:37;5.70;;;1.60;;
3000;SDS011;1510;51.072;6.678;2023-12-28T11:12:07;14.80;;;2.70;;
3000;SDS011;1510;51.072;6.678;2023-12-28T11:14:36;20.23;;;2.67;;
3000;SDS011;1510;51.072;6.678;2023-12-28T11:17:06;8.40;;;2.70;;
3000;SDS011;1510;51.072;6.678;2023-12-28T11:19:33;8.80;;;2.50;;
3000;SDS011;1510;51.072;6.678;2023-12-28T11:22:01;12.03;;;2.30;;
3000;SDS011;1510;51.072;6.678;2023-12-28T11:24:29;9.13;;;2.07;;
3000;SDS011;1510;51.072;6.678;2023-12-28T11:26:57;15.23;;;2.10;;
3000;SDS011;1510;51.072;6.678;2023-12-28T11:29:24;12.30;;;2.63;;
3000;SDS011;1510;51.072;6.678;2023-12-28T11:31:53;13.90;;;2.70;;
3000;SDS011;1510;51.072;6.678;2023-12-28T11:34:24;18.87;;;3.23;;
3000;SDS011;1510;51.072;6.678;2023-12-28T11:36:52;10.23;;;2.37;;
3000;SDS011;1510;51.072;6.678;2023-12-28T11:39:26;8.30;;;2.03;;
3000;SDS011;1510;51.072;6.678;2023-12-28T11:42:01;7.93;;;2.40;;
3000;SDS011;1510;51.072;6.678;2023-12-28T11:44:29;9.50;;;2.13;;
3000;SDS011;1510;51.072;6.678;2023-12-28T11:46:57;13.17;;;2.73;;
3000;SDS011;1510;51.072;6.678;2023-12-28T11:49:25;9.07;;;2.23;;
3000;SDS011;1510;51.072;6.678;2023-12-28T11:51:55;10.40;;;2.63;;
3000;SDS011;1510;51.072;6.678;2023-12-28T11:54:23;9.70;;;2.60;;
3000;SDS011;1510;51.072;6.678;2023-12-28T11:56:51;12.27;;;2.70;;
3000;SDS011;1510;51.072;6.678;2023-12-28T11:59:18;13.33;;;2.67;;
3000;SDS011;1510;51.072;6.678;2023-12-28T12:01:48;10.27;;;2.30;;
3000;SDS011;1510;51.072;6.678;2023-12-28T12:04:17;6.47;;;2.07;;
3000;SDS011;1510;51.072;6.678;2023-12-28T12:06:44;10.20;;;2.30;;
3000;SDS011;1510;51.072;6.678;2023-12-28T12:09:12;7.37;;;2.00;;
3000;SDS011;1510;51.072;6.678;2023-12-28T12:11:39;10.43;;;2.20;;
3000;SDS011;1510;51.072;6.678;2023-12-28T12:14:07;13.33;;;3.37;;
3000;SDS011;1510;51.072;6.678;2023-12-28T12:16:35;7.60;;;2.20;;
3000;SDS011;1510;51.072;6.678;2023-12-28T12:19:02;20.60;;;3.07;;
3000;SDS011;1510;51.072;6.678;2023-12-28T12:21:30;10.20;;;2.20;;
3000;SDS011;1510;51.072;6.678;2023-12-28T12:23:57;8.63;;;2.03;;
3000;SDS011;1510;51.072;6.678;2023-12-28T12:26:24;12.13;;;1.90;;
3000;SDS011;1510;51.072;6.678;2023-12-28T12:28:51;7.90;;;1.70;;
3000;SDS011;1510;51.072;6.678;2023-12-28T12:31:18;9.87;;;2.60;;
3000;SDS011;1510;51.072;6.678;2023-12-28T12:33:46;7.50;;;1.83;;
3000;SDS011;1510;51.072;6.678;2023-12-28T12:36:13;10.70;;;1.83;;
3000;SDS011;1510;51.072;6.678;2023-12-28T12:38:41;10.50;;;2.23;;
3000;SDS011;1510;51.072;6.678;2023-12-28T12:41:09;8.67;;;2.13;;
3000;SDS011;1510;51.072;6.678;2023-12-28T12:43:37;8.67;;;2.40;;
3000;SDS011;1510;51.072;6.678;2023-12-28T12:46:06;7.40;;;1.97;;
3000;SDS011;1510;51.072;6.678;2023-12-28T12:48:33;11.80;;;2.20;;
3000;SDS011;1510;51.072;6.678;2023-12-28T12:51:01;7.60;;;2.00;;
3000;SDS011;1510;51.072;6.678;2023-12-28T12:53:32;13.53;;;2.77;;
3000;SDS011;1510;51.072;6.678;2023-12-28T12:56:04;11.00;;;2.03;;
3000;SDS011;1510;51.072;6.678;2023-12-28T12:58:32;10.82;;;2.80;;
3000;SDS011;1510;51.072;6.678;2023-12-28T13:00:59;9.87;;;2.70;;
3000;SDS011;1510;51.072;6.678;2023-12-28T13:03:29;7.70;;;1.93;;
3000;SDS011;1510;51.072;6.678;2023-12-28T13:05:56;8.17;;;2.40;;
3000;SDS011;1510;51.072;6.678;2023-12-28T13:08:25;9.43;;;2.40;;
3000;SDS011;1510;51.072;6.678;2023-12-28T13:10:52;10.23;;;2.70;;
3000;SDS011;1510;51.072;6.678;2023-12-28T13:13:20;8.43;;;2.10;;
3000;SDS011;1510;51.072;6.678;2023-12-28T13:15:47;12.10;;;2.30;;
3000;SDS011;1510;51.072;6.678;2023-12-28T13:18:14;10.03;;;2.60;;
3000;SDS011;1510;51.072;6.678;2023-12-28T13:20:41;7.10;;;1.97;;
3000;SDS011;1510;51.072;6.678;2023-12-28T13:23:09;13.53;;;2.40;;
3000;SDS011;1510;51.072;6.678;2023-12-28T13:25:36;4.83;;;1.50;;
3000;SDS011;1510;51.072;6.678;2023-12-28T13:28:03;7.80;;;1.80;;
3000;SDS011;1510;51.072;6.678;2023-12-28T13:30:31;8.40;;;1.83;;
3000;SDS011;1510;51.072;6.678;2023-12-28T13:32:58;14.17;;;2.70;;
3000;SDS011;1510;51.072;6.678;2023-12-28T13:35:25;10.17;;;2.90;;
3000;SDS011;1510;51.072;6.678;2023-12-28T13:37:52;13.40;;;3.37;;
3000;SDS011;1510;51.072;6.678;2023-12-28T13:40:19;8.23;;;2.07;;
3000;SDS011;1510;51.072;6.678;2023-12-28T13:42:45;14.43;;;2.20;;
3000;SDS011;1510;51.072;6.678;2023-12-28T13:45:13;4.70;;;1.40;;
3000;SDS011;1510;51.072;6.678;2023-12-28T13:47:41;8.90;;;1.93;;
3000;SDS011;1510;51.072;6.678;2023-12-28T13:50:08;10.90;;;2.33;;
3000;SDS011;1510;51.072;6.678;2023-12-28T13:52:36;19.47;;;3.30;;
3000;SDS011;1510;51.072;6.678;2023-12-28T13:55:03;9.20;;;2.10;;
3000;SDS011;1510;51.072;6.678;2023-12-28T13:57:30;13.70;;;2.10;;
3000;SDS011;1510;51.072;6.678;2023-12-28T13:59:57;9.37;;;2.27;;
3000;SDS011;1510;51.072;6.678;2023-12-28T14:02:26;11.30;;;2.60;;
3000;SDS011;1510;51.072;6.678;2023-12-28T14:04:54;9.17;;;2.57;;
3000;SDS011;1510;51.072;6.678;2023-12-28T14:07:22;7.50;;;2.20;;
3000;SDS011;1510;51.072;6.678;2023-12-28T14:09:48;12.50;;;2.43;;
3000;SDS011;1510;51.072;6.678;2023-12-28T14:12:15;6.93;;;1.80;;
3000;SDS011;1510;51.072;6.678;2023-12-28T14:14:42;11.50;;;2.53;;
3000;SDS011;1510;51.072;6.678;2023-12-28T14:17:09;8.03;;;2.07;;
3000;SDS011;1510;51.072;6.678;2023-12-28T14:19:36;15.60;;;2.50;;
3000;SDS011;1510;51.072;6.678;2023-12-28T14:22:04;13.20;;;2.50;;
3000;SDS011;1510;51.072;6.678;2023-12-28T14:24:33;8.53;;;2.03;;
3000;SDS011;1510;51.072;6.678;2023-12-28T14:27:00;9.90;;;2.30;;
3000;SDS011;1510;51.072;6.678;2023-12-28T14:29:27;7.57;;;2.60;;
3000;SDS011;1510;51.072;6.678;2023-12-28T14:31:54;8.57;;;2.13;;
3000;SDS011;1510;51.072;6.678;2023-12-28T14:34:22;13.20;;;2.80;;
3000;SDS011;1510;51.072;6.678;2023-12-28T14:36:50;7.20;;;2.27;;
3000;SDS011;1510;51.072;6.678;2023-12-28T14:39:20;7.43;;;2.33;;
3000;SDS011;1510;51.072;6.678;2023-12-28T14:41:46;11.13;;;2.37;;
3000;SDS011;1510;51.072;6.678;2023-12-28T14:44:13;10.63;;;2.20;;
3000;SDS011;1510;51.072;6.678;2023-12-28T14:46:40;6.73;;;1.77;;
3000;SDS011;1510;51.072;6.678;2023-12-28T14:49:07;6.00;;;1.87;;
3000;SDS011;1510;51.072;6.678;2023-12-28T14:51:34;10.77;;;1.80;;
3000;SDS011;1510;51.072;6.678;2023-12-28T14:54:01;7.97;;;1.90;;
3000;SDS011;1510;51.072;6.678;2023-12-28T14:56:29;9.30;;;2.40;;
3000;SDS011;1510;51.072;6.678;2023-12-28T14:58:55;6.10;;;1.30;;
3000;SDS011;1510;51.072;6.678;2023-12-28T15:01:23;10.20;;;2.00;;